sensor_id;sensor_type;location;lat;lon;timestamp;temperature;humidity
18083;DHT22;9168;51.194;6.840;2023-05-24T00:00:19;10.80;99.90
18083;DHT22;9168;51.194;6.840;2023-05-24T00:02:46;10.80;99.90
18083;DHT22;9168;51.194;6.840;2023-05-24T00:05:13;10.80;99.90
18083;DHT22;9168;51.194;6.840;2023-05-24T00:07:41;10.70;99.90
18083;DHT22;9168;51.194;6.840;2023-05-24T00:10:09;10.70;99.90
18083;DHT22;9168;51.194;6.840;2023-05-24T00:12:37;10.60;99.90
18083;DHT22;9168;51.194;6.840;2023-05-24T00:15:05;10.60;99.90
18083;DHT22;9168;51.194;6.840;2023-05-24T00:17:32;10.60;99.90
18083;DHT22;9168;51.194;6.840;2023-05-24T00:20:07;10.60;99.90
18083;DHT22;9168;51.194;6.840;2023-05-24T00:22:35;10.60;99.90
18083;DHT22;9168;51.194;6.840;2023-05-24T00:25:02;10.50;99.90
18083;DHT22;9168;51.194;6.840;2023-05-24T00:27:30;10.50;99.90
18083;DHT22;9168;51.194;6.840;2023-05-24T00:29:58;10.50;99.90
18083;DHT22;9168;51.194;6.840;2023-05-24T00:32:25;10.50;99.90
18083;DHT22;9168;51.194;6.840;2023-05-24T00:34:52;10.40;99.90
18083;DHT22;9168;51.194;6.840;2023-05-24T00:37:19;10.40;99.90
18083;DHT22;9168;51.194;6.840;2023-05-24T00:39:46;10.30;99.90
18083;DHT22;9168;51.194;6.840;2023-05-24T00:42:13;10.30;99.90
18083;DHT22;9168;51.194;6.840;2023-05-24T00:44:40;10.20;99.90
18083;DHT22;9168;51.194;6.840;2023-05-24T00:47:08;10.20;99.90
18083;DHT22;9168;51.194;6.840;2023-05-24T00:49:35;10.10;99.90
18083;DHT22;9168;51.194;6.840;2023-05-24T00:52:02;10.10;99.90
18083;DHT22;9168;51.194;6.840;2023-05-24T00:54:29;10.10;99.90
18083;DHT22;9168;51.194;6.840;2023-05-24T00:56:56;10.00;99.90
18083;DHT22;9168;51.194;6.840;2023-05-24T00:59:23;10.00;99.90
18083;DHT22;9168;51.194;6.840;2023-05-24T01:01:50;9.90;99.90
18083;DHT22;9168;51.194;6.840;2023-05-24T01:04:18;9.80;99.90
18083;DHT22;9168;51.194;6.840;2023-05-24T01:06:57;9.80;99.90
18083;DHT22;9168;51.194;6.840;2023-05-24T01:09:32;9.80;99.90
18083;DHT22;9168;51.194;6.840;2023-05-24T01:12:10;9.80;99.90
18083;DHT22;9168;51.194;6.840;2023-05-24T01:14:52;9.70;99.90
18083;DHT22;9168;51.194;6.840;2023-05-24T01:17:28;9.70;99.90
18083;DHT22;9168;51.194;6.840;2023-05-24T01:20:01;9.70;99.90
18083;DHT22;9168;51.194;6.840;2023-05-24T01:22:53;9.60;99.90
18083;DHT22;9168;51.194;6.840;2023-05-24T01:25:40;9.60;99.90
18083;DHT22;9168;51.194;6.840;2023-05-24T01:28:12;9.60;99.90
18083;DHT22;9168;51.194;6.840;2023-05-24T01:30:40;9.50;99.90
18083;DHT22;9168;51.194;6.840;2023-05-24T01:33:08;9.50;99.90
18083;DHT22;9168;51.194;6.840;2023-05-24T01:35:35;9.50;99.90
18083;DHT22;9168;51.194;6.840;2023-05-24T01:38:05;9.50;99.90
18083;DHT22;9168;51.194;6.840;2023-05-24T01:40:32;9.50;99.90
18083;DHT22;9168;51.194;6.840;2023-05-24T01:43:04;9.40;99.90
18083;DHT22;9168;51.194;6.840;2023-05-24T01:45:38;9.40;99.90
18083;DHT22;9168;51.194;6.840;2023-05-24T01:48:15;9.40;99.90
18083;DHT22;9168;51.194;6.840;2023-05-24T01:50:47;9.40;99.90
18083;DHT22;9168;51.194;6.840;2023-05-24T01:53:20;9.40;99.90
18083;DHT22;9168;51.194;6.840;2023-05-24T01:55:50;9.40;99.90
18083;DHT22;9168;51.194;6.840;2023-05-24T01:58:20;9.30;99.90
18083;DHT22;9168;51.194;6.840;2023-05-24T02:00:50;9.30;99.90
18083;DHT22;9168;51.194;6.840;2023-05-24T02:03:17;9.30;99.90
18083;DHT22;9168;51.194;6.840;2023-05-24T02:05:45;9.30;99.90
18083;DHT22;9168;51.194;6.840;2023-05-24T02:08:12;9.30;99.90
18083;DHT22;9168;51.194;6.840;2023-05-24T02:10:40;9.20;99.90
18083;DHT22;9168;51.194;6.840;2023-05-24T02:13:07;9.20;99.90
18083;DHT22;9168;51.194;6.840;2023-05-24T02:15:34;9.20;99.90
18083;DHT22;9168;51.194;6.840;2023-05-24T02:18:03;9.20;99.90
18083;DHT22;9168;51.194;6.840;2023-05-24T02:20:32;9.20;99.90
18083;DHT22;9168;51.194;6.840;2023-05-24T02:23:01;9.20;99.90
18083;DHT22;9168;51.194;6.840;2023-05-24T02:25:28;9.10;99.90
18083;DHT22;9168;51.194;6.840;2023-05-24T02:27:56;9.10;99.90
18083;DHT22;9168;51.194;6.840;2023-05-24T02:30:22;9.00;99.90
18083;DHT22;9168;51.194;6.840;2023-05-24T02:32:49;9.00;99.90
18083;DHT22;9168;51.194;6.840;2023-05-24T02:35:18;9.00;99.90
18083;DHT22;9168;51.194;6.840;2023-05-24T02:37:45;9.00;99.90
18083;DHT22;9168;51.194;6.840;2023-05-24T02:40:12;9.00;99.90
18083;DHT22;9168;51.194;6.840;2023-05-24T02:42:39;8.90;99.90
18083;DHT22;9168;51.194;6.840;2023-05-24T02:45:07;8.90;99.90
18083;DHT22;9168;51.194;6.840;2023-05-24T02:47:34;8.90;99.90
18083;DHT22;9168;51.194;6.840;2023-05-24T02:50:01;8.80;99.90
18083;DHT22;9168;51.194;6.840;2023-05-24T02:52:29;8.80;99.90
18083;DHT22;9168;51.194;6.840;2023-05-24T02:54:56;8.80;99.90
18083;DHT22;9168;51.194;6.840;2023-05-24T02:57:22;8.80;99.90
18083;DHT22;9168;51.194;6.840;2023-05-24T02:59:50;8.80;99.90
18083;DHT22;9168;51.194;6.840;2023-05-24T03:02:17;8.70;99.90
18083;DHT22;9168;51.194;6.840;2023-05-24T03:04:46;8.70;99.90
18083;DHT22;9168;51.194;6.840;2023-05-24T03:07:13;8.70;99.90
18083;DHT22;9168;51.194;6.840;2023-05-24T03:09:41;8.70;99.90
18083;DHT22;9168;51.194;6.840;2023-05-24T03:12:08;8.60;99.90
18083;DHT22;9168;51.194;6.840;2023-05-24T03:14:35;8.70;99.90
18083;DHT22;9168;51.194;6.840;2023-05-24T03:17:02;8.70;99.90
18083;DHT22;9168;51.194;6.840;2023-05-24T03:19:29;8.70;99.90
18083;DHT22;9168;51.194;6.840;2023-05-24T03:21:56;8.70;99.90
18083;DHT22;9168;51.194;6.840;2023-05-24T03:24:23;8.60;99.90
18083;DHT22;9168;51.194;6.840;2023-05-24T03:26:51;8.50;99.90
18083;DHT22;9168;51.194;6.840;2023-05-24T03:29:18;8.50;99.90
18083;DHT22;9168;51.194;6.840;2023-05-24T03:31:45;8.50;99.90
18083;DHT22;9168;51.194;6.840;2023-05-24T03:34:12;8.50;99.90
18083;DHT22;9168;51.194;6.840;2023-05-24T03:36:39;8.50;99.90
18083;DHT22;9168;51.194;6.840;2023-05-24T03:39:06;8.40;99.90
18083;DHT22;9168;51.194;6.840;2023-05-24T03:41:33;8.40;99.90
18083;DHT22;9168;51.194;6.840;2023-05-24T03:44:01;8.40;99.90
18083;DHT22;9168;51.194;6.840;2023-05-24T03:46:28;8.40;99.90
18083;DHT22;9168;51.194;6.840;2023-05-24T03:48:55;8.50;99.90
18083;DHT22;9168;51.194;6.840;2023-05-24T03:51:22;8.50;99.90
18083;DHT22;9168;51.194;6.840;2023-05-24T03:53:54;8.50;99.90
18083;DHT22;9168;51.194;6.840;2023-05-24T03:56:21;8.50;99.90
18083;DHT22;9168;51.194;6.840;2023-05-24T03:58:48;8.60;99.90
18083;DHT22;9168;51.194;6.840;2023-05-24T04:01:16;8.60;99.90
18083;DHT22;9168;51.194;6.840;2023-05-24T04:03:44;8.60;99.90
18083;DHT22;9168;51.194;6.840;2023-05-24T04:06:11;8.60;99.90
18083;DHT22;9168;51.194;6.840;2023-05-24T04:08:38;8.60;99.90
18083;DHT22;9168;51.194;6.840;2023-05-24T04:11:05;8.60;99.90
18083;DHT22;9168;51.194;6.840;2023-05-24T04:13:32;8.60;99.90
18083;DHT22;9168;51.194;6.840;2023-05-24T04:15:59;8.70;99.90
18083;DHT22;9168;51.194;6.840;2023-05-24T04:18:27;8.70;99.90
18083;DHT22;9168;51.194;6.840;2023-05-24T04:20:54;8.60;99.90
18083;DHT22;9168;51.194;6.840;2023-05-24T04:23:21;8.60;99.90
18083;DHT22;9168;51.194;6.840;2023-05-24T04:25:48;8.70;99.90
18083;DHT22;9168;51.194;6.840;2023-05-24T04:28:15;8.60;99.90
18083;DHT22;9168;51.194;6.840;2023-05-24T04:30:41;8.60;99.90
18083;DHT22;9168;51.194;6.840;2023-05-24T04:33:10;8.70;99.90
18083;DHT22;9168;51.194;6.840;2023-05-24T04:35:38;8.60;99.90
18083;DHT22;9168;51.194;6.840;2023-05-24T04:38:06;8.60;99.90
18083;DHT22;9168;51.194;6.840;2023-05-24T04:40:33;8.70;99.90
18083;DHT22;9168;51.194;6.840;2023-05-24T04:43:00;8.70;99.90
18083;DHT22;9168;51.194;6.840;2023-05-24T04:45:26;8.70;99.90
18083;DHT22;9168;51.194;6.840;2023-05-24T04:47:55;8.80;99.90
18083;DHT22;9168;51.194;6.840;2023-05-24T04:50:22;8.80;99.90
18083;DHT22;9168;51.194;6.840;2023-05-24T04:52:50;8.90;99.90
18083;DHT22;9168;51.194;6.840;2023-05-24T04:55:17;8.90;99.90
18083;DHT22;9168;51.194;6.840;2023-05-24T04:57:44;8.90;99.90
18083;DHT22;9168;51.194;6.840;2023-05-24T05:00:12;9.00;99.90
18083;DHT22;9168;51.194;6.840;2023-05-24T05:02:39;9.00;99.90
18083;DHT22;9168;51.194;6.840;2023-05-24T05:05:07;9.00;99.90
18083;DHT22;9168;51.194;6.840;2023-05-24T05:07:34;9.10;99.90
18083;DHT22;9168;51.194;6.840;2023-05-24T05:10:03;9.20;99.90
18083;DHT22;9168;51.194;6.840;2023-05-24T05:12:30;9.20;99.90
18083;DHT22;9168;51.194;6.840;2023-05-24T05:14:56;9.30;99.90
18083;DHT22;9168;51.194;6.840;2023-05-24T05:17:23;9.40;99.90
18083;DHT22;9168;51.194;6.840;2023-05-24T05:19:50;9.50;99.90
18083;DHT22;9168;51.194;6.840;2023-05-24T05:22:17;9.60;99.90
18083;DHT22;9168;51.194;6.840;2023-05-24T05:24:44;9.70;99.90
18083;DHT22;9168;51.194;6.840;2023-05-24T05:27:12;9.80;99.90
18083;DHT22;9168;51.194;6.840;2023-05-24T05:29:39;9.90;99.90
18083;DHT22;9168;51.194;6.840;2023-05-24T05:32:06;10.10;99.90
18083;DHT22;9168;51.194;6.840;2023-05-24T05:34:33;10.20;99.90
18083;DHT22;9168;51.194;6.840;2023-05-24T05:37:00;10.30;99.90
18083;DHT22;9168;51.194;6.840;2023-05-24T05:39:26;10.40;99.90
18083;DHT22;9168;51.194;6.840;2023-05-24T05:41:53;10.50;99.90
18083;DHT22;9168;51.194;6.840;2023-05-24T05:44:21;10.50;99.90
18083;DHT22;9168;51.194;6.840;2023-05-24T05:46:48;10.60;99.90
18083;DHT22;9168;51.194;6.840;2023-05-24T05:49:15;10.70;99.90
18083;DHT22;9168;51.194;6.840;2023-05-24T05:51:43;10.80;99.90
18083;DHT22;9168;51.194;6.840;2023-05-24T05:54:10;10.90;99.90
18083;DHT22;9168;51.194;6.840;2023-05-24T05:56:41;11.00;99.90
18083;DHT22;9168;51.194;6.840;2023-05-24T05:59:10;11.00;99.90
18083;DHT22;9168;51.194;6.840;2023-05-24T06:01:38;11.10;99.90
18083;DHT22;9168;51.194;6.840;2023-05-24T06:04:05;11.20;99.90
18083;DHT22;9168;51.194;6.840;2023-05-24T06:06:32;11.20;99.90
18083;DHT22;9168;51.194;6.840;2023-05-24T06:08:59;11.30;99.90
18083;DHT22;9168;51.194;6.840;2023-05-24T06:11:26;11.40;99.90
18083;DHT22;9168;51.194;6.840;2023-05-24T06:13:53;11.50;99.90
18083;DHT22;9168;51.194;6.840;2023-05-24T06:16:20;11.60;99.90
18083;DHT22;9168;51.194;6.840;2023-05-24T06:18:48;11.70;99.90
18083;DHT22;9168;51.194;6.840;2023-05-24T06:21:15;11.80;99.90
18083;DHT22;9168;51.194;6.840;2023-05-24T06:23:42;11.90;99.90
18083;DHT22;9168;51.194;6.840;2023-05-24T06:26:10;11.90;99.90
18083;DHT22;9168;51.194;6.840;2023-05-24T06:28:37;12.00;99.90
18083;DHT22;9168;51.194;6.840;2023-05-24T06:31:04;12.10;99.90
18083;DHT22;9168;51.194;6.840;2023-05-24T06:33:31;12.10;99.90
18083;DHT22;9168;51.194;6.840;2023-05-24T06:35:59;12.20;99.90
18083;DHT22;9168;51.194;6.840;2023-05-24T06:38:27;12.30;99.90
18083;DHT22;9168;51.194;6.840;2023-05-24T06:40:53;12.40;99.90
18083;DHT22;9168;51.194;6.840;2023-05-24T06:43:20;12.50;99.90
18083;DHT22;9168;51.194;6.840;2023-05-24T06:45:47;12.60;99.90
18083;DHT22;9168;51.194;6.840;2023-05-24T06:48:14;12.70;99.90
18083;DHT22;9168;51.194;6.840;2023-05-24T06:50:41;12.70;99.90
18083;DHT22;9168;51.194;6.840;2023-05-24T06:53:09;12.70;99.90
18083;DHT22;9168;51.194;6.840;2023-05-24T06:55:36;12.80;99.90
18083;DHT22;9168;51.194;6.840;2023-05-24T06:58:03;12.70;99.90
18083;DHT22;9168;51.194;6.840;2023-05-24T07:00:31;12.70;99.90
18083;DHT22;9168;51.194;6.840;2023-05-24T07:02:58;12.80;99.90
18083;DHT22;9168;51.194;6.840;2023-05-24T07:05:25;12.90;99.90
18083;DHT22;9168;51.194;6.840;2023-05-24T07:07:52;12.90;99.90
18083;DHT22;9168;51.194;6.840;2023-05-24T07:10:20;12.90;99.90
18083;DHT22;9168;51.194;6.840;2023-05-24T07:12:47;13.00;99.90
18083;DHT22;9168;51.194;6.840;2023-05-24T07:15:14;13.00;99.90
18083;DHT22;9168;51.194;6.840;2023-05-24T07:17:41;13.10;99.90
18083;DHT22;9168;51.194;6.840;2023-05-24T07:20:09;13.20;99.90
18083;DHT22;9168;51.194;6.840;2023-05-24T07:22:36;13.30;99.90
18083;DHT22;9168;51.194;6.840;2023-05-24T07:25:03;13.40;99.90
18083;DHT22;9168;51.194;6.840;2023-05-24T07:27:31;13.60;99.90
18083;DHT22;9168;51.194;6.840;2023-05-24T07:29:59;13.70;99.90
18083;DHT22;9168;51.194;6.840;2023-05-24T07:32:27;13.70;99.90
18083;DHT22;9168;51.194;6.840;2023-05-24T07:34:53;13.80;99.90
18083;DHT22;9168;51.194;6.840;2023-05-24T07:37:20;13.90;99.90
18083;DHT22;9168;51.194;6.840;2023-05-24T07:39:48;14.10;99.90
18083;DHT22;9168;51.194;6.840;2023-05-24T07:42:15;14.20;99.90
18083;DHT22;9168;51.194;6.840;2023-05-24T07:44:43;14.30;99.90
18083;DHT22;9168;51.194;6.840;2023-05-24T07:47:11;14.30;99.90
18083;DHT22;9168;51.194;6.840;2023-05-24T07:49:38;14.40;99.90
18083;DHT22;9168;51.194;6.840;2023-05-24T07:52:05;14.30;99.90
18083;DHT22;9168;51.194;6.840;2023-05-24T07:54:31;14.30;99.90
18083;DHT22;9168;51.194;6.840;2023-05-24T07:56:58;14.40;99.90
18083;DHT22;9168;51.194;6.840;2023-05-24T07:59:26;14.40;99.90
18083;DHT22;9168;51.194;6.840;2023-05-24T08:01:55;14.40;99.90
18083;DHT22;9168;51.194;6.840;2023-05-24T08:04:26;14.30;99.90
18083;DHT22;9168;51.194;6.840;2023-05-24T08:06:52;14.30;99.90
18083;DHT22;9168;51.194;6.840;2023-05-24T08:09:20;14.30;99.90
18083;DHT22;9168;51.194;6.840;2023-05-24T08:11:48;14.20;99.90
18083;DHT22;9168;51.194;6.840;2023-05-24T08:14:15;14.20;99.90
18083;DHT22;9168;51.194;6.840;2023-05-24T08:16:41;14.30;99.90
18083;DHT22;9168;51.194;6.840;2023-05-24T08:19:10;14.40;99.90
18083;DHT22;9168;51.194;6.840;2023-05-24T08:21:37;14.50;99.90
18083;DHT22;9168;51.194;6.840;2023-05-24T08:24:03;14.60;99.90
18083;DHT22;9168;51.194;6.840;2023-05-24T08:26:30;14.70;99.90
18083;DHT22;9168;51.194;6.840;2023-05-24T08:28:57;14.70;99.90
18083;DHT22;9168;51.194;6.840;2023-05-24T08:31:24;14.60;99.90
18083;DHT22;9168;51.194;6.840;2023-05-24T08:33:51;14.60;99.90
18083;DHT22;9168;51.194;6.840;2023-05-24T08:36:20;14.50;99.90
18083;DHT22;9168;51.194;6.840;2023-05-24T08:38:47;14.50;99.90
18083;DHT22;9168;51.194;6.840;2023-05-24T08:41:14;14.50;99.90
18083;DHT22;9168;51.194;6.840;2023-05-24T08:43:41;14.60;99.90
18083;DHT22;9168;51.194;6.840;2023-05-24T08:46:09;14.70;99.90
18083;DHT22;9168;51.194;6.840;2023-05-24T08:48:44;14.80;99.90
18083;DHT22;9168;51.194;6.840;2023-05-24T08:51:13;14.90;99.90
18083;DHT22;9168;51.194;6.840;2023-05-24T08:53:43;15.00;99.90
18083;DHT22;9168;51.194;6.840;2023-05-24T08:56:13;15.10;99.90
18083;DHT22;9168;51.194;6.840;2023-05-24T08:58:42;15.10;99.90
18083;DHT22;9168;51.194;6.840;2023-05-24T09:01:10;15.10;99.90
18083;DHT22;9168;51.194;6.840;2023-05-24T09:03:39;15.10;99.90
18083;DHT22;9168;51.194;6.840;2023-05-24T09:06:08;15.10;99.90
18083;DHT22;9168;51.194;6.840;2023-05-24T09:08:36;15.20;99.90
18083;DHT22;9168;51.194;6.840;2023-05-24T09:11:04;15.20;99.90
18083;DHT22;9168;51.194;6.840;2023-05-24T09:13:33;15.30;99.90
18083;DHT22;9168;51.194;6.840;2023-05-24T09:16:00;15.40;99.90
18083;DHT22;9168;51.194;6.840;2023-05-24T09:18:27;15.50;99.90
18083;DHT22;9168;51.194;6.840;2023-05-24T09:20:54;15.50;99.90
18083;DHT22;9168;51.194;6.840;2023-05-24T09:23:21;15.60;99.90
18083;DHT22;9168;51.194;6.840;2023-05-24T09:25:49;15.60;99.90
18083;DHT22;9168;51.194;6.840;2023-05-24T09:28:19;15.60;99.90
18083;DHT22;9168;51.194;6.840;2023-05-24T09:30:58;15.60;99.90
18083;DHT22;9168;51.194;6.840;2023-05-24T09:33:28;15.60;99.90
18083;DHT22;9168;51.194;6.840;2023-05-24T09:35:57;15.60;99.90
18083;DHT22;9168;51.194;6.840;2023-05-24T09:38:24;15.60;99.90
18083;DHT22;9168;51.194;6.840;2023-05-24T09:41:02;15.60;99.90
18083;DHT22;9168;51.194;6.840;2023-05-24T09:43:32;15.70;99.90
18083;DHT22;9168;51.194;6.840;2023-05-24T09:46:02;15.60;99.90
18083;DHT22;9168;51.194;6.840;2023-05-24T09:48:29;15.70;99.90
18083;DHT22;9168;51.194;6.840;2023-05-24T09:51:01;15.70;99.90
18083;DHT22;9168;51.194;6.840;2023-05-24T09:53:28;15.80;99.90
18083;DHT22;9168;51.194;6.840;2023-05-24T09:55:55;15.90;99.90
18083;DHT22;9168;51.194;6.840;2023-05-24T09:58:29;16.00;99.90
18083;DHT22;9168;51.194;6.840;2023-05-24T10:01:04;16.10;99.90
18083;DHT22;9168;51.194;6.840;2023-05-24T10:03:33;16.10;99.90
18083;DHT22;9168;51.194;6.840;2023-05-24T10:06:02;16.20;99.90
18083;DHT22;9168;51.194;6.840;2023-05-24T10:08:32;16.30;99.90
18083;DHT22;9168;51.194;6.840;2023-05-24T10:11:01;16.30;99.90
18083;DHT22;9168;51.194;6.840;2023-05-24T10:13:29;16.30;99.90
18083;DHT22;9168;51.194;6.840;2023-05-24T10:15:58;16.30;99.90
18083;DHT22;9168;51.194;6.840;2023-05-24T10:18:26;16.50;99.90
18083;DHT22;9168;51.194;6.840;2023-05-24T10:20:54;16.60;99.90
18083;DHT22;9168;51.194;6.840;2023-05-24T10:23:22;16.60;99.90
18083;DHT22;9168;51.194;6.840;2023-05-24T10:25:53;16.60;99.90
18083;DHT22;9168;51.194;6.840;2023-05-24T10:28:22;16.50;99.90
18083;DHT22;9168;51.194;6.840;2023-05-24T10:30:58;16.40;99.90
18083;DHT22;9168;51.194;6.840;2023-05-24T10:33:29;16.30;99.90
18083;DHT22;9168;51.194;6.840;2023-05-24T10:35:56;16.30;99.90
18083;DHT22;9168;51.194;6.840;2023-05-24T10:38:24;16.20;99.90
18083;DHT22;9168;51.194;6.840;2023-05-24T10:40:51;16.30;99.90
18083;DHT22;9168;51.194;6.840;2023-05-24T10:43:18;16.50;99.90
18083;DHT22;9168;51.194;6.840;2023-05-24T10:45:48;16.60;99.90
18083;DHT22;9168;51.194;6.840;2023-05-24T10:48:38;16.70;99.90
18083;DHT22;9168;51.194;6.840;2023-05-24T10:51:33;17.30;99.90
18083;DHT22;9168;51.194;6.840;2023-05-24T10:54:13;18.10;99.90
18083;DHT22;9168;51.194;6.840;2023-05-24T10:56:43;18.30;99.90
18083;DHT22;9168;51.194;6.840;2023-05-24T10:59:22;18.30;99.90
18083;DHT22;9168;51.194;6.840;2023-05-24T11:01:54;18.10;99.90
18083;DHT22;9168;51.194;6.840;2023-05-24T11:04:23;17.90;99.90
18083;DHT22;9168;51.194;6.840;2023-05-24T11:06:54;17.60;99.90
18083;DHT22;9168;51.194;6.840;2023-05-24T11:09:22;17.30;99.90
18083;DHT22;9168;51.194;6.840;2023-05-24T11:11:53;17.00;99.90
18083;DHT22;9168;51.194;6.840;2023-05-24T11:14:22;16.70;99.90
18083;DHT22;9168;51.194;6.840;2023-05-24T11:16:50;16.50;99.90
18083;DHT22;9168;51.194;6.840;2023-05-24T11:19:18;16.30;99.90
18083;DHT22;9168;51.194;6.840;2023-05-24T11:21:47;16.20;99.90
18083;DHT22;9168;51.194;6.840;2023-05-24T11:24:15;16.10;99.90
18083;DHT22;9168;51.194;6.840;2023-05-24T11:26:43;16.00;99.90
18083;DHT22;9168;51.194;6.840;2023-05-24T11:29:12;15.80;99.90
18083;DHT22;9168;51.194;6.840;2023-05-24T11:31:46;15.70;99.90
18083;DHT22;9168;51.194;6.840;2023-05-24T11:34:13;15.60;99.90
18083;DHT22;9168;51.194;6.840;2023-05-24T11:36:41;15.60;99.90
18083;DHT22;9168;51.194;6.840;2023-05-24T11:39:09;15.50;99.90
18083;DHT22;9168;51.194;6.840;2023-05-24T11:41:37;15.50;99.90
18083;DHT22;9168;51.194;6.840;2023-05-24T11:44:05;15.50;99.90
18083;DHT22;9168;51.194;6.840;2023-05-24T11:46:32;15.50;99.90
18083;DHT22;9168;51.194;6.840;2023-05-24T11:48:59;15.50;99.90
18083;DHT22;9168;51.194;6.840;2023-05-24T11:51:27;15.50;99.90
18083;DHT22;9168;51.194;6.840;2023-05-24T11:53:55;15.60;99.90
18083;DHT22;9168;51.194;6.840;2023-05-24T11:56:23;15.60;99.90
18083;DHT22;9168;51.194;6.840;2023-05-24T11:58:58;15.70;99.90
18083;DHT22;9168;51.194;6.840;2023-05-24T12:01:28;15.80;99.90
18083;DHT22;9168;51.194;6.840;2023-05-24T12:03:55;15.90;99.90
18083;DHT22;9168;51.194;6.840;2023-05-24T12:06:22;15.90;99.90
18083;DHT22;9168;51.194;6.840;2023-05-24T12:08:49;16.00;99.90
18083;DHT22;9168;51.194;6.840;2023-05-24T12:11:16;16.10;99.90
18083;DHT22;9168;51.194;6.840;2023-05-24T12:13:44;16.10;99.90
18083;DHT22;9168;51.194;6.840;2023-05-24T12:16:11;16.20;99.90
18083;DHT22;9168;51.194;6.840;2023-05-24T12:18:39;16.20;99.90
18083;DHT22;9168;51.194;6.840;2023-05-24T12:21:08;16.30;99.90
18083;DHT22;9168;51.194;6.840;2023-05-24T12:23:36;17.00;99.90
18083;DHT22;9168;51.194;6.840;2023-05-24T12:26:04;17.80;99.90
18083;DHT22;9168;51.194;6.840;2023-05-24T12:28:34;18.50;99.90
18083;DHT22;9168;51.194;6.840;2023-05-24T12:31:04;18.80;99.90
18083;DHT22;9168;51.194;6.840;2023-05-24T12:33:31;19.00;99.90
18083;DHT22;9168;51.194;6.840;2023-05-24T12:35:58;19.00;99.90
18083;DHT22;9168;51.194;6.840;2023-05-24T12:38:27;18.80;99.90
18083;DHT22;9168;51.194;6.840;2023-05-24T12:40:54;18.60;99.90
18083;DHT22;9168;51.194;6.840;2023-05-24T12:43:21;18.60;99.90
18083;DHT22;9168;51.194;6.840;2023-05-24T12:45:48;18.60;99.90
18083;DHT22;9168;51.194;6.840;2023-05-24T12:48:16;18.50;99.90
18083;DHT22;9168;51.194;6.840;2023-05-24T12:50:43;18.50;99.90
18083;DHT22;9168;51.194;6.840;2023-05-24T12:53:10;18.50;99.90
18083;DHT22;9168;51.194;6.840;2023-05-24T12:55:38;18.60;99.90
18083;DHT22;9168;51.194;6.840;2023-05-24T12:58:05;18.80;99.90
18083;DHT22;9168;51.194;6.840;2023-05-24T13:00:34;18.90;99.90
18083;DHT22;9168;51.194;6.840;2023-05-24T13:03:00;19.00;99.90
18083;DHT22;9168;51.194;6.840;2023-05-24T13:05:29;19.20;99.90
18083;DHT22;9168;51.194;6.840;2023-05-24T13:07:56;19.30;99.90
18083;DHT22;9168;51.194;6.840;2023-05-24T13:10:23;19.30;99.90
18083;DHT22;9168;51.194;6.840;2023-05-24T13:12:50;19.40;99.90
18083;DHT22;9168;51.194;6.840;2023-05-24T13:15:17;19.40;99.90
18083;DHT22;9168;51.194;6.840;2023-05-24T13:17:47;19.30;99.90
18083;DHT22;9168;51.194;6.840;2023-05-24T13:20:14;19.10;99.90
18083;DHT22;9168;51.194;6.840;2023-05-24T13:22:44;18.90;99.90
18083;DHT22;9168;51.194;6.840;2023-05-24T13:25:11;18.60;99.90
18083;DHT22;9168;51.194;6.840;2023-05-24T13:27:38;18.40;99.90
18083;DHT22;9168;51.194;6.840;2023-05-24T13:30:08;18.20;99.90
18083;DHT22;9168;51.194;6.840;2023-05-24T13:32:35;18.00;99.90
18083;DHT22;9168;51.194;6.840;2023-05-24T13:35:02;18.00;99.90
18083;DHT22;9168;51.194;6.840;2023-05-24T13:37:29;18.00;99.90
18083;DHT22;9168;51.194;6.840;2023-05-24T13:39:57;17.90;99.90
18083;DHT22;9168;51.194;6.840;2023-05-24T13:42:24;17.90;99.90
18083;DHT22;9168;51.194;6.840;2023-05-24T13:44:51;17.90;99.90
18083;DHT22;9168;51.194;6.840;2023-05-24T13:47:19;17.90;99.90
18083;DHT22;9168;51.194;6.840;2023-05-24T13:49:47;18.00;99.90
18083;DHT22;9168;51.194;6.840;2023-05-24T13:52:13;18.00;99.90
18083;DHT22;9168;51.194;6.840;2023-05-24T13:54:40;17.90;99.90
18083;DHT22;9168;51.194;6.840;2023-05-24T13:57:09;17.90;99.90
18083;DHT22;9168;51.194;6.840;2023-05-24T13:59:36;17.80;99.90
18083;DHT22;9168;51.194;6.840;2023-05-24T14:02:03;17.70;99.90
18083;DHT22;9168;51.194;6.840;2023-05-24T14:04:30;17.60;99.90
18083;DHT22;9168;51.194;6.840;2023-05-24T14:06:57;17.50;99.90
18083;DHT22;9168;51.194;6.840;2023-05-24T14:09:24;17.50;99.90
18083;DHT22;9168;51.194;6.840;2023-05-24T14:11:51;17.50;99.90
18083;DHT22;9168;51.194;6.840;2023-05-24T14:14:19;17.50;99.90
18083;DHT22;9168;51.194;6.840;2023-05-24T14:16:46;17.40;99.90
18083;DHT22;9168;51.194;6.840;2023-05-24T14:19:16;17.50;99.90
18083;DHT22;9168;51.194;6.840;2023-05-24T14:21:43;17.50;99.90
18083;DHT22;9168;51.194;6.840;2023-05-24T14:24:10;17.50;99.90
18083;DHT22;9168;51.194;6.840;2023-05-24T14:26:37;17.50;99.90
18083;DHT22;9168;51.194;6.840;2023-05-24T14:29:05;17.50;99.90
18083;DHT22;9168;51.194;6.840;2023-05-24T14:31:34;17.50;99.90
18083;DHT22;9168;51.194;6.840;2023-05-24T14:34:07;17.50;99.90
18083;DHT22;9168;51.194;6.840;2023-05-24T14:36:34;17.60;99.90
18083;DHT22;9168;51.194;6.840;2023-05-24T14:39:02;17.70;99.90
18083;DHT22;9168;51.194;6.840;2023-05-24T14:41:28;17.70;99.90
18083;DHT22;9168;51.194;6.840;2023-05-24T14:43:55;17.80;99.90
18083;DHT22;9168;51.194;6.840;2023-05-24T14:46:22;17.80;99.90
18083;DHT22;9168;51.194;6.840;2023-05-24T14:48:51;17.90;99.90
18083;DHT22;9168;51.194;6.840;2023-05-24T14:51:18;17.90;99.90
18083;DHT22;9168;51.194;6.840;2023-05-24T14:53:45;18.00;99.90
18083;DHT22;9168;51.194;6.840;2023-05-24T14:56:12;18.00;99.90
18083;DHT22;9168;51.194;6.840;2023-05-24T14:58:39;18.00;99.90
18083;DHT22;9168;51.194;6.840;2023-05-24T15:01:06;17.90;99.90
18083;DHT22;9168;51.194;6.840;2023-05-24T15:03:33;17.90;99.90
18083;DHT22;9168;51.194;6.840;2023-05-24T15:06:03;17.90;99.90
18083;DHT22;9168;51.194;6.840;2023-05-24T15:08:29;17.80;99.90
18083;DHT22;9168;51.194;6.840;2023-05-24T15:10:57;17.80;99.90
18083;DHT22;9168;51.194;6.840;2023-05-24T15:13:23;17.70;99.90
18083;DHT22;9168;51.194;6.840;2023-05-24T15:15:51;17.70;99.90
18083;DHT22;9168;51.194;6.840;2023-05-24T15:18:21;17.70;99.90
18083;DHT22;9168;51.194;6.840;2023-05-24T15:20:50;17.70;99.90
18083;DHT22;9168;51.194;6.840;2023-05-24T15:23:18;17.70;99.90
18083;DHT22;9168;51.194;6.840;2023-05-24T15:25:45;17.70;99.90
18083;DHT22;9168;51.194;6.840;2023-05-24T15:28:12;17.60;99.90
18083;DHT22;9168;51.194;6.840;2023-05-24T15:30:41;17.60;99.90
18083;DHT22;9168;51.194;6.840;2023-05-24T15:33:10;17.50;99.90
18083;DHT22;9168;51.194;6.840;2023-05-24T15:35:37;17.50;99.90
18083;DHT22;9168;51.194;6.840;2023-05-24T15:38:04;17.40;99.90
18083;DHT22;9168;51.194;6.840;2023-05-24T15:40:32;17.40;99.90
18083;DHT22;9168;51.194;6.840;2023-05-24T15:42:59;17.30;99.90
18083;DHT22;9168;51.194;6.840;2023-05-24T15:45:26;17.30;99.90
18083;DHT22;9168;51.194;6.840;2023-05-24T15:47:53;17.20;99.90
18083;DHT22;9168;51.194;6.840;2023-05-24T15:50:20;17.20;99.90
18083;DHT22;9168;51.194;6.840;2023-05-24T15:52:47;17.10;99.90
18083;DHT22;9168;51.194;6.840;2023-05-24T15:55:13;17.10;99.90